Terminal Aerodrome Forecast
Issued by NWS Grand Junction, CO

Home | Current Version | Previous Version | Text Only | Print | Product List | Glossary On
Versions: 1 2 3 4 5 6 7 8 9 10 11 12 13 14 15 16
000
FTUS45 KGJT 261120
TAFGJT
TAF
KGJT 261120Z 2612/2712 05009KT P6SM SCT250
     FM261700 23004KT P6SM SCT070 SCT250
     FM262100 29005KT P6SM VCSH BKN070
     FM270200 36007KT P6SM BKN150
     FM270400 VRB03KT P6SM BKN090
     FM270700 VRB03KT P6SM SCT200=

USA.gov is the U.S. government's official web portal to all federal, state and local government web resources and services.